createdAt,value
2022-11-26T00:00:33.103Z,94.50
2022-11-26T00:01:33.091Z,94.81
2022-11-26T00:02:33.272Z,94.91
2022-11-26T00:03:33.143Z,95.01
2022-11-26T00:04:33.049Z,94.91
2022-11-26T00:06:33.024Z,95.12
2022-11-26T00:07:33.099Z,95.12
2022-11-26T00:08:32.997Z,95.22
2022-11-26T00:09:32.986Z,95.22
2022-11-26T00:10:32.972Z,95.01
2022-11-26T00:11:32.960Z,95.12
2022-11-26T00:12:32.946Z,95.33
2022-11-26T00:13:32.936Z,95.33
2022-11-26T00:14:32.920Z,95.42
2022-11-26T00:15:32.911Z,95.53
2022-11-26T00:16:32.987Z,95.53
2022-11-26T00:17:32.904Z,95.63
2022-11-26T00:18:32.868Z,95.63
2022-11-26T00:19:32.860Z,95.42
2022-11-26T00:20:32.844Z,95.33
2022-11-26T00:21:32.854Z,95.12
2022-11-26T00:22:32.817Z,95.01
2022-11-26T00:23:32.806Z,94.66
2022-11-26T00:24:32.791Z,94.45
2022-11-26T00:25:32.779Z,94.25
2022-11-26T00:26:32.768Z,94.25
2022-11-26T00:27:32.758Z,94.15
2022-11-26T00:28:32.740Z,94.36
2022-11-26T00:29:32.736Z,94.45
2022-11-26T00:30:32.730Z,94.36
2022-11-26T00:31:32.746Z,94.36
2022-11-26T00:32:32.688Z,94.36
2022-11-26T00:33:32.692Z,94.25
2022-11-26T00:34:32.689Z,94.36
2022-11-26T00:35:32.670Z,94.40
2022-11-26T00:36:32.640Z,94.50
2022-11-26T00:37:32.649Z,94.40
2022-11-26T00:38:32.619Z,94.29
2022-11-26T00:39:32.599Z,94.40
2022-11-26T00:40:32.591Z,94.60
2022-11-26T00:41:32.578Z,94.50
2022-11-26T00:42:32.558Z,94.60
2022-11-26T00:43:32.549Z,94.70
2022-11-26T00:44:32.534Z,94.60
2022-11-26T00:45:32.629Z,94.75
2022-11-26T00:46:32.509Z,94.95
2022-11-26T00:47:32.497Z,95.37
2022-11-26T00:48:32.482Z,95.37
2022-11-26T00:49:32.471Z,95.37
2022-11-26T00:50:32.454Z,95.37
2022-11-26T00:51:32.450Z,95.47
2022-11-26T00:52:32.429Z,95.47
2022-11-26T00:53:32.444Z,94.85
2022-11-26T00:54:32.403Z,94.90
2022-11-26T00:55:32.410Z,95.20
2022-11-26T00:56:36.587Z,95.83
2022-11-26T00:57:32.371Z,95.72
2022-11-26T00:58:32.352Z,95.62
2022-11-26T00:59:32.342Z,95.72
2022-11-26T01:00:32.329Z,95.83
2022-11-26T01:01:32.354Z,95.83
2022-11-26T01:02:32.326Z,95.72
2022-11-26T01:03:32.290Z,95.58
2022-11-26T01:04:32.274Z,95.26
2022-11-26T01:05:32.265Z,95.16
2022-11-26T01:07:32.276Z,94.65
2022-11-26T01:08:32.228Z,94.23
2022-11-26T01:09:32.238Z,94.23
2022-11-26T01:10:32.199Z,94.23
2022-11-26T01:11:32.189Z,94.13
2022-11-26T01:12:32.174Z,94.34
2022-11-26T01:13:32.162Z,94.13
2022-11-26T01:14:32.149Z,94.23
2022-11-26T01:15:32.135Z,94.54
2022-11-26T01:16:32.156Z,94.13
2022-11-26T01:17:32.111Z,94.13
2022-11-26T01:18:32.095Z,93.82
2022-11-26T01:19:32.083Z,93.66
2022-11-26T01:20:32.074Z,93.45
2022-11-26T01:21:32.058Z,93.66
2022-11-26T01:22:32.043Z,93.76
2022-11-26T01:23:32.032Z,93.60
2022-11-26T01:24:32.017Z,93.91
2022-11-26T01:25:32.032Z,93.81
2022-11-26T01:26:31.992Z,94.16
2022-11-26T01:27:31.983Z,94.16
2022-11-26T01:28:31.971Z,93.38
2022-11-26T01:29:31.957Z,93.48
2022-11-26T01:30:31.963Z,93.58
2022-11-26T01:31:31.973Z,93.93
2022-11-26T01:32:31.916Z,93.73
2022-11-26T01:33:31.905Z,94.14
2022-11-26T01:34:31.891Z,94.76
2022-11-26T01:35:31.883Z,94.87
2022-11-26T01:36:31.866Z,95.07
2022-11-26T01:37:31.855Z,95.28
2022-11-26T01:38:31.841Z,95.07
2022-11-26T01:39:31.830Z,94.91
2022-11-26T01:40:31.814Z,94.81
2022-11-26T01:41:31.828Z,94.81
2022-11-26T01:42:31.789Z,94.81
2022-11-26T01:43:31.780Z,94.43
2022-11-26T01:44:31.770Z,95.37
2022-11-26T01:45:31.791Z,97.22
2022-11-26T01:46:31.739Z,98.26
2022-11-26T01:47:31.728Z,99.09
2022-11-26T01:48:31.711Z,99.40
2022-11-26T01:49:31.701Z,99.29
2022-11-26T01:50:31.687Z,99.71
2022-11-26T01:51:31.674Z,99.81
2022-11-26T01:52:31.659Z,99.50
2022-11-26T01:53:31.648Z,99.81
2022-11-26T01:54:31.633Z,99.92
2022-11-26T01:55:31.622Z,99.99
2022-11-26T01:56:31.607Z,99.99
2022-11-26T01:57:31.621Z,99.92
2022-11-26T01:58:34.463Z,99.40
2022-11-26T01:59:31.569Z,99.19
2022-11-26T02:00:31.555Z,98.72
2022-11-26T02:01:31.604Z,98.72
2022-11-26T02:02:31.602Z,98.93
2022-11-26T02:03:31.517Z,99.24
2022-11-26T02:04:31.500Z,98.76
2022-11-26T02:05:31.491Z,98.97
2022-11-26T02:06:31.473Z,98.87
2022-11-26T02:08:31.454Z,98.15
2022-11-26T02:09:31.437Z,98.29
2022-11-26T02:10:31.420Z,98.35
2022-11-26T02:11:31.410Z,98.19
2022-11-26T02:12:31.394Z,98.29
2022-11-26T02:13:31.408Z,97.77
2022-11-26T02:14:31.375Z,97.98
2022-11-26T02:15:31.358Z,98.08
2022-11-26T02:16:31.425Z,98.08
2022-11-26T02:17:31.330Z,98.71
2022-11-26T02:18:31.314Z,98.60
2022-11-26T02:19:31.304Z,98.71
2022-11-26T02:20:31.288Z,98.50
2022-11-26T02:21:31.277Z,98.40
2022-11-26T02:22:31.263Z,98.08
2022-11-26T02:23:31.252Z,98.23
2022-11-26T02:24:31.239Z,98.33
2022-11-26T02:25:31.233Z,98.33
2022-11-26T02:26:31.214Z,98.29
2022-11-26T02:27:31.204Z,98.19
2022-11-26T02:28:31.192Z,98.60
2022-11-26T02:29:31.203Z,98.40
2022-11-26T02:30:31.165Z,98.81
2022-11-26T02:31:31.238Z,98.71
2022-11-26T02:32:31.146Z,98.60
2022-11-26T02:33:31.131Z,98.19
2022-11-26T02:34:37.045Z,97.61
2022-11-26T02:35:33.107Z,97.61
2022-11-26T02:36:31.091Z,97.51
2022-11-26T02:37:31.082Z,98.03
2022-11-26T02:38:31.072Z,98.03
2022-11-26T02:39:31.057Z,98.03
2022-11-26T02:40:31.044Z,98.13
2022-11-26T02:41:31.032Z,99.74
2022-11-26T02:42:31.020Z,99.99
2022-11-26T02:43:31.005Z,99.99
2022-11-26T02:44:30.994Z,99.99
2022-11-26T02:45:31.086Z,99.99
2022-11-26T02:46:30.970Z,99.99
2022-11-26T02:47:30.955Z,99.99
2022-11-26T02:48:30.944Z,99.99
2022-11-26T02:49:30.936Z,99.99
2022-11-26T02:50:30.918Z,99.99
2022-11-26T02:51:34.846Z,99.99
2022-11-26T02:52:30.890Z,99.99
2022-11-26T02:53:30.874Z,99.99
2022-11-26T02:54:30.864Z,99.90
2022-11-26T02:55:30.852Z,99.49
2022-11-26T02:56:30.840Z,98.71
2022-11-26T02:57:30.825Z,98.40
2022-11-26T02:58:30.815Z,97.77
2022-11-26T02:59:30.800Z,97.10
2022-11-26T03:00:30.789Z,96.72
2022-11-26T03:01:30.839Z,97.14
2022-11-26T03:02:30.764Z,97.86
2022-11-26T03:03:30.837Z,98.18
2022-11-26T03:04:30.737Z,98.07
2022-11-26T03:05:30.724Z,98.28
2022-11-26T03:06:30.714Z,98.53
2022-11-26T03:07:30.774Z,98.84
2022-11-26T03:09:30.675Z,99.11
2022-11-26T03:10:30.665Z,99.32
2022-11-26T03:11:30.677Z,99.93
2022-11-26T03:12:30.641Z,99.99
2022-11-26T03:13:30.626Z,99.99
2022-11-26T03:14:30.631Z,99.99
2022-11-26T03:15:30.602Z,99.99
2022-11-26T03:16:30.670Z,99.99
2022-11-26T03:17:30.601Z,99.93
2022-11-26T03:18:30.572Z,99.93
2022-11-26T03:19:30.555Z,99.83
2022-11-26T03:20:30.544Z,99.83
2022-11-26T03:21:30.530Z,99.62
2022-11-26T03:22:30.520Z,99.62
2022-11-26T03:23:30.505Z,99.83
2022-11-26T03:24:30.497Z,99.83
2022-11-26T03:25:30.481Z,99.42
2022-11-26T03:26:30.471Z,99.21
2022-11-26T03:27:30.457Z,98.84
2022-11-26T03:28:30.447Z,98.84
2022-11-26T03:29:30.433Z,98.95
2022-11-26T03:30:30.421Z,98.95
2022-11-26T03:31:30.509Z,99.26
2022-11-26T03:32:30.397Z,99.88
2022-11-26T03:33:30.406Z,99.99
2022-11-26T03:34:30.372Z,99.99
2022-11-26T03:35:30.363Z,99.99
2022-11-26T03:36:30.348Z,99.99
2022-11-26T03:37:30.337Z,99.99
2022-11-26T03:38:30.328Z,99.99
2022-11-26T03:39:30.311Z,99.99
2022-11-26T03:40:30.299Z,99.99
2022-11-26T03:41:30.288Z,99.99
2022-11-26T03:42:30.276Z,99.99
2022-11-26T03:43:30.259Z,99.99
2022-11-26T03:44:30.249Z,99.99
2022-11-26T03:45:30.292Z,98.96
2022-11-26T03:46:30.228Z,98.69
2022-11-26T03:47:30.210Z,98.90
2022-11-26T03:48:30.200Z,98.80
2022-11-26T03:49:30.208Z,99.05
2022-11-26T03:50:30.172Z,99.05
2022-11-26T03:51:30.156Z,98.95
2022-11-26T03:52:30.146Z,98.63
2022-11-26T03:53:30.132Z,98.79
2022-11-26T03:54:30.120Z,98.68
2022-11-26T03:55:30.117Z,98.58
2022-11-26T03:56:30.098Z,98.58
2022-11-26T03:57:30.081Z,98.62
2022-11-26T03:58:30.076Z,98.79
2022-11-26T03:59:30.059Z,98.73
2022-11-26T04:00:30.047Z,99.14
2022-11-26T04:01:30.080Z,99.20
2022-11-26T04:02:30.024Z,99.31
2022-11-26T04:03:30.154Z,99.41
2022-11-26T04:04:29.998Z,99.31
2022-11-26T04:05:30.014Z,99.04
2022-11-26T04:06:29.973Z,98.62
2022-11-26T04:07:30.074Z,98.41
2022-11-26T04:08:29.949Z,97.79
2022-11-26T04:10:29.925Z,97.43
2022-11-26T04:11:29.912Z,97.94
2022-11-26T04:12:29.901Z,98.21
2022-11-26T04:13:29.889Z,98.31
2022-11-26T04:14:29.880Z,98.21
2022-11-26T04:15:29.864Z,97.84
2022-11-26T04:16:29.887Z,98.46
2022-11-26T04:17:29.841Z,98.15
2022-11-26T04:18:29.829Z,98.46
2022-11-26T04:19:29.815Z,98.67
2022-11-26T04:20:29.805Z,98.93
2022-11-26T04:21:29.817Z,99.14
2022-11-26T04:22:29.781Z,99.04
2022-11-26T04:23:29.768Z,99.14
2022-11-26T04:24:29.755Z,99.04
2022-11-26T04:25:29.740Z,99.24
2022-11-26T04:26:29.730Z,99.45
2022-11-26T04:27:29.717Z,99.45
2022-11-26T04:28:29.707Z,99.45
2022-11-26T04:29:29.692Z,99.29
2022-11-26T04:30:30.132Z,99.09
2022-11-26T04:31:29.732Z,98.71
2022-11-26T04:32:29.656Z,98.40
2022-11-26T04:33:29.644Z,97.82
2022-11-26T04:34:29.631Z,97.82
2022-11-26T04:35:29.616Z,97.72
2022-11-26T04:36:29.607Z,97.72
2022-11-26T04:37:29.617Z,97.35
2022-11-26T04:38:29.581Z,97.35
2022-11-26T04:39:29.572Z,97.56
2022-11-26T04:40:29.557Z,97.24
2022-11-26T04:41:29.542Z,97.56
2022-11-26T04:42:29.531Z,99.70
2022-11-26T04:43:29.517Z,99.99
2022-11-26T04:44:29.505Z,99.99
2022-11-26T04:45:29.510Z,99.99
2022-11-26T04:46:29.479Z,99.99
2022-11-26T04:47:29.465Z,99.99
2022-11-26T04:48:29.456Z,99.99
2022-11-26T04:49:29.441Z,99.99
2022-11-26T04:50:29.430Z,99.99
2022-11-26T04:51:29.416Z,99.99
2022-11-26T04:52:29.404Z,99.99
2022-11-26T04:53:29.415Z,99.99
2022-11-26T04:54:29.382Z,99.99
2022-11-26T04:55:29.367Z,99.99
2022-11-26T04:56:29.356Z,99.99
2022-11-26T04:57:29.340Z,99.99
2022-11-26T04:58:29.330Z,99.99
2022-11-26T04:59:29.318Z,99.99
2022-11-26T05:00:29.307Z,99.99
2022-11-26T05:01:29.315Z,99.99
2022-11-26T05:02:29.356Z,99.99
2022-11-26T05:03:29.268Z,99.99
2022-11-26T05:04:29.256Z,99.99
2022-11-26T05:05:29.243Z,99.99
2022-11-26T05:06:29.231Z,99.99
2022-11-26T05:07:29.297Z,99.99
2022-11-26T05:08:29.207Z,99.99
2022-11-26T05:09:29.217Z,99.99
2022-11-26T05:11:29.169Z,99.99
2022-11-26T05:12:29.158Z,99.99
2022-11-26T05:13:29.151Z,99.99
2022-11-26T05:14:29.134Z,99.99
2022-11-26T05:15:29.120Z,99.99
2022-11-26T05:16:29.167Z,99.99
2022-11-26T05:17:29.096Z,99.99
2022-11-26T05:18:29.084Z,99.99
2022-11-26T05:19:29.072Z,99.99
2022-11-26T05:20:29.062Z,99.99
2022-11-26T05:21:29.047Z,99.99
2022-11-26T05:22:29.039Z,99.99
2022-11-26T05:23:29.025Z,99.99
2022-11-26T05:24:29.012Z,99.99
2022-11-26T05:25:29.024Z,99.99
2022-11-26T05:26:28.988Z,99.99
2022-11-26T05:27:28.975Z,99.99
2022-11-26T05:28:28.966Z,99.99
2022-11-26T05:29:28.950Z,99.99
2022-11-26T05:30:28.940Z,99.99
2022-11-26T05:31:29.196Z,99.99
2022-11-26T05:32:28.916Z,99.99
2022-11-26T05:33:28.902Z,99.99
2022-11-26T05:34:28.892Z,99.99
2022-11-26T05:35:28.879Z,99.99
2022-11-26T05:36:28.867Z,99.99
2022-11-26T05:37:28.853Z,99.99
2022-11-26T05:38:28.844Z,99.99
2022-11-26T05:39:28.829Z,99.99
2022-11-26T05:40:28.829Z,99.99
2022-11-26T05:41:28.827Z,99.99
2022-11-26T05:42:28.792Z,99.99
2022-11-26T05:43:28.779Z,99.99
2022-11-26T05:44:28.767Z,99.99
2022-11-26T05:45:28.790Z,99.99
2022-11-26T05:46:28.746Z,99.99
2022-11-26T05:47:28.728Z,99.99
2022-11-26T05:48:28.717Z,99.99
2022-11-26T05:49:28.704Z,99.99
2022-11-26T05:50:28.691Z,99.99
2022-11-26T05:51:28.678Z,99.99
2022-11-26T05:52:28.666Z,99.99
2022-11-26T05:53:28.652Z,99.99
2022-11-26T05:54:28.641Z,99.99
2022-11-26T05:55:28.625Z,99.99
2022-11-26T05:56:28.615Z,99.99
2022-11-26T05:57:28.629Z,99.99
2022-11-26T05:58:28.591Z,99.99
2022-11-26T05:59:28.576Z,99.99
2022-11-26T06:00:28.571Z,99.99
2022-11-26T06:01:28.550Z,99.99
2022-11-26T06:02:28.658Z,99.99
2022-11-26T06:03:28.712Z,99.99
2022-11-26T06:04:28.514Z,99.99
2022-11-26T06:05:28.501Z,99.99
2022-11-26T06:06:28.490Z,99.99
2022-11-26T06:07:28.503Z,99.99
2022-11-26T06:08:28.463Z,99.99
2022-11-26T06:09:28.450Z,99.99
2022-11-26T06:10:28.438Z,99.99
2022-11-26T06:12:28.410Z,99.99
2022-11-26T06:13:28.422Z,99.99
2022-11-26T06:14:28.386Z,99.99
2022-11-26T06:15:28.372Z,99.99
2022-11-26T06:16:28.379Z,99.99
2022-11-26T06:17:28.347Z,99.99
2022-11-26T06:18:28.339Z,99.99
2022-11-26T06:19:28.322Z,99.99
2022-11-26T06:20:28.312Z,99.99
2022-11-26T06:21:28.296Z,99.99
2022-11-26T06:22:28.286Z,99.99
2022-11-26T06:23:28.270Z,99.99
2022-11-26T06:24:28.262Z,99.99
2022-11-26T06:25:28.249Z,99.99
2022-11-26T06:26:28.240Z,99.99
2022-11-26T06:27:28.221Z,99.99
2022-11-26T06:28:28.210Z,99.99
2022-11-26T06:29:28.499Z,99.99
2022-11-26T06:30:28.184Z,99.99
2022-11-26T06:31:28.241Z,99.99
2022-11-26T06:32:28.161Z,99.99
2022-11-26T06:33:28.144Z,99.99
2022-11-26T06:34:28.136Z,99.99
2022-11-26T06:35:28.119Z,99.99
2022-11-26T06:36:28.110Z,99.99
2022-11-26T06:37:28.094Z,99.99
2022-11-26T06:38:28.083Z,99.99
2022-11-26T06:39:28.068Z,99.99
2022-11-26T06:40:28.058Z,99.99
2022-11-26T06:41:28.043Z,99.99
2022-11-26T06:42:28.031Z,99.99
2022-11-26T06:43:28.017Z,99.99
2022-11-26T06:44:28.006Z,99.99
2022-11-26T06:45:28.060Z,99.99
2022-11-26T06:46:27.982Z,99.99
2022-11-26T06:47:27.967Z,99.99
2022-11-26T06:48:27.958Z,99.99
2022-11-26T06:49:27.942Z,99.99
2022-11-26T06:50:27.931Z,99.99
2022-11-26T06:51:27.928Z,99.99
2022-11-26T06:52:27.905Z,99.99
2022-11-26T06:53:27.891Z,99.99
2022-11-26T06:54:27.880Z,99.99
2022-11-26T06:55:27.866Z,99.69
2022-11-26T06:56:27.854Z,99.37
2022-11-26T06:57:27.840Z,99.33
2022-11-26T06:58:27.829Z,99.33
2022-11-26T06:59:27.816Z,98.81
2022-11-26T07:00:28.005Z,98.97
2022-11-26T07:01:27.882Z,98.39
2022-11-26T07:02:27.895Z,98.49
2022-11-26T07:03:33.058Z,98.70
2022-11-26T07:04:27.752Z,98.70
2022-11-26T07:05:27.741Z,99.48
2022-11-26T07:06:27.727Z,99.99
2022-11-26T07:07:27.863Z,99.99
2022-11-26T07:08:27.704Z,99.99
2022-11-26T07:09:27.691Z,99.99
2022-11-26T07:10:27.680Z,99.99
2022-11-26T07:11:27.666Z,99.99
2022-11-26T07:13:27.640Z,99.99
2022-11-26T07:14:27.625Z,99.99
2022-11-26T07:15:27.618Z,99.99
2022-11-26T07:16:27.681Z,99.99
2022-11-26T07:17:27.618Z,99.99
2022-11-26T07:18:27.576Z,99.99
2022-11-26T07:19:27.566Z,99.99
2022-11-26T07:20:27.551Z,99.99
2022-11-26T07:21:27.545Z,99.99
2022-11-26T07:22:27.528Z,99.99
2022-11-26T07:23:27.515Z,99.99
2022-11-26T07:24:27.503Z,99.99
2022-11-26T07:25:27.491Z,99.99
2022-11-26T07:26:27.475Z,99.99
2022-11-26T07:27:27.464Z,99.99
2022-11-26T07:28:27.452Z,99.99
2022-11-26T07:29:27.440Z,99.99
2022-11-26T07:30:27.443Z,99.99
2022-11-26T07:31:27.458Z,99.99
2022-11-26T07:32:27.399Z,99.99
2022-11-26T07:33:27.422Z,99.99
2022-11-26T07:34:27.374Z,99.99
2022-11-26T07:35:27.364Z,99.99
2022-11-26T07:36:27.351Z,99.99
2022-11-26T07:37:27.339Z,99.99
2022-11-26T07:38:27.324Z,99.99
2022-11-26T07:39:27.314Z,99.99
2022-11-26T07:40:27.298Z,99.99
2022-11-26T07:41:27.287Z,99.99
2022-11-26T07:42:27.274Z,99.99
2022-11-26T07:43:27.263Z,99.99
2022-11-26T07:44:27.247Z,99.99
2022-11-26T07:45:27.237Z,99.99
2022-11-26T07:46:27.314Z,99.99
2022-11-26T07:47:27.211Z,99.99
2022-11-26T07:48:27.196Z,99.99
2022-11-26T07:49:27.211Z,99.99
2022-11-26T07:50:27.171Z,99.99
2022-11-26T07:51:27.161Z,99.99
2022-11-26T07:52:27.160Z,99.99
2022-11-26T07:53:27.136Z,99.99
2022-11-26T07:54:27.121Z,99.99
2022-11-26T07:55:27.112Z,99.99
2022-11-26T07:56:27.139Z,99.99
2022-11-26T07:57:27.087Z,99.99
2022-11-26T07:58:27.073Z,99.99
2022-11-26T07:59:27.066Z,99.99
2022-11-26T08:00:27.048Z,99.99
2022-11-26T08:01:27.264Z,99.99
2022-11-26T08:02:27.049Z,99.99
2022-11-26T08:03:27.014Z,99.99
2022-11-26T08:04:27.000Z,99.99
2022-11-26T08:05:27.012Z,99.99
2022-11-26T08:06:26.975Z,99.99
2022-11-26T08:07:29.392Z,99.99
2022-11-26T08:08:26.948Z,99.99
2022-11-26T08:09:26.940Z,99.99
2022-11-26T08:10:26.991Z,99.99
2022-11-26T08:11:26.913Z,99.99
2022-11-26T08:12:26.897Z,99.99
2022-11-26T08:14:26.872Z,99.99
2022-11-26T08:15:26.860Z,99.99
2022-11-26T08:16:29.108Z,99.99
2022-11-26T08:17:26.834Z,99.99
2022-11-26T08:18:26.819Z,99.99
2022-11-26T08:19:26.806Z,99.99
2022-11-26T08:20:29.032Z,99.99
2022-11-26T08:21:26.806Z,99.88
2022-11-26T08:22:26.767Z,99.71
2022-11-26T08:23:26.755Z,99.99
2022-11-26T08:24:26.741Z,99.99
2022-11-26T08:25:26.730Z,99.78
2022-11-26T08:26:33.998Z,99.61
2022-11-26T08:27:28.705Z,99.57
2022-11-26T08:28:26.690Z,99.78
2022-11-26T08:29:26.680Z,99.88
2022-11-26T08:30:26.742Z,99.88
2022-11-26T08:31:26.695Z,99.73
2022-11-26T08:32:26.639Z,99.99
2022-11-26T08:33:26.642Z,99.99
2022-11-26T08:34:26.614Z,99.89
2022-11-26T08:35:44.372Z,99.79
2022-11-26T08:36:26.591Z,99.58
2022-11-26T08:37:26.599Z,99.84
2022-11-26T08:38:26.564Z,99.99
2022-11-26T08:39:26.553Z,99.99
2022-11-26T08:40:26.539Z,99.99
2022-11-26T08:41:26.533Z,99.99
2022-11-26T08:42:26.512Z,99.99
2022-11-26T08:43:45.063Z,99.99
2022-11-26T08:44:26.488Z,99.99
2022-11-26T08:45:26.476Z,99.99
2022-11-26T08:46:26.503Z,99.99
2022-11-26T08:47:26.450Z,99.99
2022-11-26T08:48:30.508Z,99.99
2022-11-26T08:49:26.432Z,99.99
2022-11-26T08:50:26.411Z,99.96
2022-11-26T08:51:26.401Z,99.96
2022-11-26T08:52:26.385Z,99.50
2022-11-26T08:53:26.400Z,99.54
2022-11-26T08:54:26.360Z,99.60
2022-11-26T08:55:27.102Z,99.09
2022-11-26T08:56:26.334Z,99.29
2022-11-26T08:57:26.323Z,99.29
2022-11-26T08:58:26.308Z,99.24
2022-11-26T08:59:26.297Z,99.35
2022-11-26T09:00:26.283Z,99.04
2022-11-26T09:01:26.469Z,99.04
2022-11-26T09:02:26.257Z,99.20
2022-11-26T09:03:26.315Z,99.10
2022-11-26T09:04:26.232Z,98.89
2022-11-26T09:05:26.220Z,98.85
2022-11-26T09:06:26.213Z,98.74
2022-11-26T09:07:26.267Z,98.12
2022-11-26T09:08:26.181Z,97.61
2022-11-26T09:09:26.191Z,97.50
2022-11-26T09:10:26.156Z,97.40
2022-11-26T09:11:26.146Z,97.71
2022-11-26T09:12:26.129Z,97.97
2022-11-26T09:13:26.119Z,98.39
2022-11-26T09:15:26.091Z,98.30
2022-11-26T09:16:26.141Z,97.99
2022-11-26T09:17:26.067Z,97.78
2022-11-26T09:18:26.052Z,97.27
2022-11-26T09:19:26.042Z,97.06
2022-11-26T09:20:26.026Z,97.06
2022-11-26T09:21:26.016Z,96.75
2022-11-26T09:22:26.001Z,96.24
2022-11-26T09:23:25.990Z,96.03
2022-11-26T09:24:25.975Z,96.13
2022-11-26T09:25:25.988Z,96.55
2022-11-26T09:26:25.949Z,96.60
2022-11-26T09:27:25.941Z,95.98
2022-11-26T09:28:25.924Z,95.78
2022-11-26T09:29:25.912Z,96.40
2022-11-26T09:30:25.897Z,96.77
2022-11-26T09:31:25.978Z,96.92
2022-11-26T09:32:30.953Z,95.53
2022-11-26T09:33:25.862Z,94.81
2022-11-26T09:34:25.846Z,94.34
2022-11-26T09:35:25.837Z,94.65
2022-11-26T09:36:25.820Z,94.48
2022-11-26T09:37:25.811Z,94.69
2022-11-26T09:38:25.796Z,95.00
2022-11-26T09:39:25.786Z,95.52
2022-11-26T09:40:25.770Z,95.58
2022-11-26T09:41:25.782Z,95.84
2022-11-26T09:42:25.744Z,96.56
2022-11-26T09:43:25.734Z,97.13
2022-11-26T09:44:25.720Z,96.67
2022-11-26T09:45:25.739Z,96.06
2022-11-26T09:46:25.695Z,95.64
2022-11-26T09:47:25.684Z,94.87
2022-11-26T09:48:25.671Z,95.28
2022-11-26T09:49:25.662Z,95.38
2022-11-26T09:50:25.645Z,95.44
2022-11-26T09:51:25.642Z,94.45
2022-11-26T09:52:25.619Z,93.78
2022-11-26T09:53:25.636Z,93.37
2022-11-26T09:54:25.591Z,93.45
2022-11-26T09:55:25.581Z,94.90
2022-11-26T09:56:25.567Z,95.41
2022-11-26T09:57:25.580Z,94.63
2022-11-26T09:58:27.511Z,96.03
2022-11-26T09:59:25.533Z,96.03
2022-11-26T10:00:25.518Z,96.13
2022-11-26T10:01:25.599Z,95.83
2022-11-26T10:02:25.577Z,95.72
2022-11-26T10:03:25.480Z,95.52
2022-11-26T10:04:25.468Z,95.15
2022-11-26T10:05:25.456Z,95.72
2022-11-26T10:06:25.441Z,95.41
2022-11-26T10:07:25.470Z,95.25
2022-11-26T10:08:25.415Z,95.66
2022-11-26T10:09:25.406Z,95.87
2022-11-26T10:10:25.390Z,95.45
2022-11-26T10:11:25.381Z,96.03
2022-11-26T10:12:26.360Z,96.24
2022-11-26T10:13:25.382Z,96.03
2022-11-26T10:14:25.348Z,95.72
2022-11-26T10:16:25.342Z,95.88
2022-11-26T10:17:25.307Z,95.26
2022-11-26T10:18:25.290Z,95.06
2022-11-26T10:19:25.279Z,94.59
2022-11-26T10:20:25.267Z,95.37
2022-11-26T10:21:37.878Z,95.06
2022-11-26T10:22:25.239Z,95.26
2022-11-26T10:23:25.228Z,94.23
2022-11-26T10:24:25.216Z,94.85
2022-11-26T10:25:25.203Z,94.95
2022-11-26T10:26:25.189Z,94.95
2022-11-26T10:27:25.179Z,95.12
2022-11-26T10:28:25.164Z,95.16
2022-11-26T10:29:25.178Z,94.44
2022-11-26T10:30:25.139Z,94.65
2022-11-26T10:31:25.204Z,94.95
2022-11-26T10:32:25.116Z,94.54
2022-11-26T10:33:25.104Z,94.54
2022-11-26T10:34:28.353Z,95.16
2022-11-26T10:35:25.085Z,95.78
2022-11-26T10:36:25.064Z,95.73
2022-11-26T10:37:25.053Z,95.22
2022-11-26T10:38:25.041Z,95.01
2022-11-26T10:39:25.028Z,94.19
2022-11-26T10:40:25.014Z,94.50
2022-11-26T10:41:25.003Z,94.50
2022-11-26T10:42:24.989Z,94.19
2022-11-26T10:43:24.977Z,94.40
2022-11-26T10:44:24.965Z,94.91
2022-11-26T10:45:24.982Z,94.50
2022-11-26T10:46:24.977Z,94.54
2022-11-26T10:47:24.927Z,95.12
2022-11-26T10:48:24.912Z,94.50
2022-11-26T10:49:24.908Z,94.09
2022-11-26T10:50:46.488Z,94.76
2022-11-26T10:51:26.889Z,94.56
2022-11-26T10:52:24.865Z,93.12
2022-11-26T10:53:24.856Z,93.26
2022-11-26T10:54:24.839Z,93.51
2022-11-26T10:55:24.832Z,94.34
2022-11-26T10:56:24.814Z,94.54
2022-11-26T10:57:24.804Z,94.65
2022-11-26T10:58:24.789Z,95.47
2022-11-26T10:59:24.778Z,95.01
2022-11-26T11:00:24.764Z,94.91
2022-11-26T11:01:24.840Z,93.82
2022-11-26T11:02:24.840Z,94.44
2022-11-26T11:03:38.543Z,94.70
2022-11-26T11:04:26.715Z,94.40
2022-11-26T11:05:24.703Z,94.50
2022-11-26T11:06:24.688Z,93.98
2022-11-26T11:07:24.755Z,93.47
2022-11-26T11:08:24.663Z,93.16
2022-11-26T11:09:24.662Z,93.57
2022-11-26T11:10:24.637Z,93.22
2022-11-26T11:11:24.627Z,93.64
2022-11-26T11:12:24.616Z,93.18
2022-11-26T11:13:24.601Z,92.87
2022-11-26T11:14:24.587Z,93.03
2022-11-26T11:15:24.577Z,92.31
2022-11-26T11:17:24.609Z,91.12
2022-11-26T11:18:24.539Z,90.81
2022-11-26T11:19:24.525Z,91.68
2022-11-26T11:20:24.514Z,92.81
2022-11-26T11:21:24.498Z,92.29
2022-11-26T11:22:24.487Z,91.51
2022-11-26T11:23:39.998Z,91.93
2022-11-26T11:24:24.462Z,92.44
2022-11-26T11:25:25.462Z,92.75
2022-11-26T11:26:24.442Z,93.12
2022-11-26T11:27:24.424Z,92.40
2022-11-26T11:28:24.412Z,91.68
2022-11-26T11:29:24.399Z,91.94
2022-11-26T11:30:24.388Z,92.11
2022-11-26T11:31:24.435Z,91.24
2022-11-26T11:32:24.364Z,89.80
2022-11-26T11:33:24.373Z,89.56
2022-11-26T11:34:24.335Z,89.66
2022-11-26T11:35:24.323Z,88.47
2022-11-26T11:36:24.312Z,89.02
2022-11-26T11:37:24.301Z,90.77
2022-11-26T11:38:24.286Z,91.04
2022-11-26T11:39:24.271Z,90.52
2022-11-26T11:40:24.261Z,90.83
2022-11-26T11:41:24.246Z,89.29
2022-11-26T11:42:24.235Z,88.82
2022-11-26T11:43:24.220Z,89.84
2022-11-26T11:44:24.210Z,89.95
2022-11-26T11:45:24.194Z,90.46
2022-11-26T11:46:24.240Z,90.46
2022-11-26T11:47:24.168Z,89.99
2022-11-26T11:48:24.159Z,90.03
2022-11-26T11:49:24.167Z,90.79
2022-11-26T11:50:24.144Z,91.88
2022-11-26T11:51:24.117Z,91.21
2022-11-26T11:52:24.104Z,90.96
2022-11-26T11:53:24.091Z,90.59
2022-11-26T11:54:24.077Z,91.21
2022-11-26T11:55:24.064Z,91.51
2022-11-26T11:56:24.051Z,91.78
2022-11-26T11:57:24.038Z,91.22
2022-11-26T11:58:24.032Z,90.30
2022-11-26T11:59:24.017Z,90.91
2022-11-26T12:00:24.000Z,90.75
2022-11-26T12:01:23.985Z,91.53
2022-11-26T12:02:24.050Z,91.39
2022-11-26T12:03:23.959Z,91.65
2022-11-26T12:04:23.982Z,90.27
2022-11-26T12:05:23.994Z,88.47
2022-11-26T12:06:23.923Z,88.72
2022-11-26T12:07:23.969Z,89.74
2022-11-26T12:08:23.894Z,90.01
2022-11-26T12:09:23.881Z,89.70
2022-11-26T12:10:23.867Z,88.78
2022-11-26T12:11:23.858Z,89.59
2022-11-26T12:12:23.844Z,89.39
2022-11-26T12:13:23.826Z,89.39
2022-11-26T12:14:23.818Z,88.57
2022-11-26T12:15:23.800Z,88.36
2022-11-26T12:16:23.827Z,88.67
2022-11-26T12:18:23.760Z,89.19
2022-11-26T12:19:23.745Z,88.53
2022-11-26T12:20:23.737Z,87.91
2022-11-26T12:21:23.745Z,88.84
2022-11-26T12:22:23.707Z,89.45
2022-11-26T12:23:24.842Z,88.18
2022-11-26T12:24:23.683Z,87.09
2022-11-26T12:25:23.672Z,87.09
2022-11-26T12:26:23.655Z,88.92
2022-11-26T12:27:23.640Z,89.29
2022-11-26T12:28:23.630Z,88.57
2022-11-26T12:29:23.614Z,88.00
2022-11-26T12:30:23.604Z,89.23
2022-11-26T12:31:23.664Z,89.59
2022-11-26T12:32:23.577Z,87.95
2022-11-26T12:33:23.563Z,88.10
2022-11-26T12:34:23.552Z,89.02
2022-11-26T12:35:23.536Z,89.23
2022-11-26T12:36:23.525Z,89.23
2022-11-26T12:37:23.540Z,89.19
2022-11-26T12:38:23.497Z,89.14
2022-11-26T12:39:23.483Z,88.53
2022-11-26T12:40:23.474Z,88.43
2022-11-26T12:41:23.457Z,87.91
2022-11-26T12:42:23.446Z,87.20
2022-11-26T12:43:23.432Z,86.48
2022-11-26T12:44:23.419Z,86.58
2022-11-26T12:45:23.405Z,85.96
2022-11-26T12:46:23.466Z,86.27
2022-11-26T12:47:23.382Z,85.04
2022-11-26T12:48:23.368Z,86.16
2022-11-26T12:49:23.354Z,85.59
2022-11-26T12:50:23.339Z,86.21
2022-11-26T12:51:23.329Z,86.51
2022-11-26T12:52:23.313Z,86.78
2022-11-26T12:53:23.323Z,86.16
2022-11-26T12:54:23.288Z,86.16
2022-11-26T12:55:23.272Z,86.16
2022-11-26T12:56:23.260Z,86.27
2022-11-26T12:57:23.245Z,85.86
2022-11-26T12:58:23.233Z,85.24
2022-11-26T12:59:23.219Z,86.16
2022-11-26T13:00:26.653Z,86.37
2022-11-26T13:01:23.326Z,86.13
2022-11-26T13:02:23.308Z,85.62
2022-11-26T13:03:23.166Z,83.70
2022-11-26T13:04:37.680Z,85.24
2022-11-26T13:05:25.140Z,84.63